sensor_id;sensor_type;location;lat;lon;timestamp;pressure;altitude;pressure_sealevel;temperature;humidity
54194;BME280;40102;50.906;6.972;2022-08-04T00:00:17;100622.63;;;28.21;44.92
54194;BME280;40102;50.906;6.972;2022-08-04T00:02:56;100626.44;;;28.20;45.28
54194;BME280;40102;50.906;6.972;2022-08-04T00:05:38;100627.47;;;28.19;44.78
54194;BME280;40102;50.906;6.972;2022-08-04T00:10:57;100623.25;;;28.16;45.03
54194;BME280;40102;50.906;6.972;2022-08-04T00:13:25;100619.84;;;28.14;45.03
54194;BME280;40102;50.906;6.972;2022-08-04T00:16:12;100617.69;;;28.10;45.08
54194;BME280;40102;50.906;6.972;2022-08-04T00:18:46;100611.31;;;28.02;45.24
54194;BME280;40102;50.906;6.972;2022-08-04T00:21:15;100616.13;;;27.94;45.84
54194;BME280;40102;50.906;6.972;2022-08-04T00:23:43;100623.91;;;27.90;45.83
54194;BME280;40102;50.906;6.972;2022-08-04T00:26:10;100621.38;;;27.89;45.75
54194;BME280;40102;50.906;6.972;2022-08-04T00:28:36;100615.41;;;27.85;45.96
54194;BME280;40102;50.906;6.972;2022-08-04T00:31:09;100626.56;;;27.77;46.83
54194;BME280;40102;50.906;6.972;2022-08-04T00:33:36;100625.25;;;27.73;46.23
54194;BME280;40102;50.906;6.972;2022-08-04T00:36:02;100624.41;;;27.72;46.11
54194;BME280;40102;50.906;6.972;2022-08-04T00:38:28;100616.81;;;27.74;46.08
54194;BME280;40102;50.906;6.972;2022-08-04T00:41:18;100610.28;;;27.76;46.48
54194;BME280;40102;50.906;6.972;2022-08-04T00:57:11;100600.59;;;27.58;47.33
54194;BME280;40102;50.906;6.972;2022-08-04T01:02:30;100591.00;;;27.48;47.59
54194;BME280;40102;50.906;6.972;2022-08-04T01:16:04;100596.31;;;26.70;49.60
54194;BME280;40102;50.906;6.972;2022-08-04T01:26:43;100592.16;;;26.96;49.03
54194;BME280;40102;50.906;6.972;2022-08-04T01:29:14;100593.13;;;26.88;49.20
54194;BME280;40102;50.906;6.972;2022-08-04T01:34:39;100588.69;;;26.87;49.26
54194;BME280;40102;50.906;6.972;2022-08-04T01:40:05;100588.69;;;26.51;50.81
54194;BME280;40102;50.906;6.972;2022-08-04T01:42:33;100593.16;;;25.93;52.15
54194;BME280;40102;50.906;6.972;2022-08-04T01:45:06;100598.75;;;25.62;53.14
54194;BME280;40102;50.906;6.972;2022-08-04T01:47:34;100600.22;;;25.50;53.31
54194;BME280;40102;50.906;6.972;2022-08-04T01:50:11;100594.03;;;25.56;52.68
54194;BME280;40102;50.906;6.972;2022-08-04T01:52:40;100593.66;;;25.59;52.42
54194;BME280;40102;50.906;6.972;2022-08-04T01:55:08;100600.16;;;25.58;52.22
54194;BME280;40102;50.906;6.972;2022-08-04T01:57:36;100605.41;;;25.45;53.00
54194;BME280;40102;50.906;6.972;2022-08-04T02:00:05;100593.88;;;25.35;52.92
54194;BME280;40102;50.906;6.972;2022-08-04T02:02:32;100585.00;;;25.33;53.29
54194;BME280;40102;50.906;6.972;2022-08-04T02:04:58;100587.25;;;25.29;53.08
54194;BME280;40102;50.906;6.972;2022-08-04T02:10:27;100585.84;;;25.33;53.52
54194;BME280;40102;50.906;6.972;2022-08-04T02:18:22;100581.22;;;25.34;53.39
54194;BME280;40102;50.906;6.972;2022-08-04T02:20:56;100574.88;;;25.33;53.59
54194;BME280;40102;50.906;6.972;2022-08-04T02:23:29;100573.50;;;25.14;54.26
54194;BME280;40102;50.906;6.972;2022-08-04T02:25:59;100569.19;;;24.97;54.98
54194;BME280;40102;50.906;6.972;2022-08-04T02:29:33;100568.59;;;24.79;55.61
54194;BME280;40102;50.906;6.972;2022-08-04T02:32:04;100581.94;;;24.51;56.96
54194;BME280;40102;50.906;6.972;2022-08-04T02:37:08;100565.47;;;24.28;57.49
54194;BME280;40102;50.906;6.972;2022-08-04T02:39:35;100570.63;;;24.15;57.71
54194;BME280;40102;50.906;6.972;2022-08-04T02:42:04;100562.97;;;24.02;58.06
54194;BME280;40102;50.906;6.972;2022-08-04T02:44:30;100558.41;;;23.95;58.42
54194;BME280;40102;50.906;6.972;2022-08-04T02:46:59;100564.38;;;23.90;59.07
54194;BME280;40102;50.906;6.972;2022-08-04T02:49:25;100562.31;;;23.92;58.52
54194;BME280;40102;50.906;6.972;2022-08-04T02:51:53;100553.44;;;23.98;58.69
54194;BME280;40102;50.906;6.972;2022-08-04T02:54:24;100562.38;;;24.23;57.77
54194;BME280;40102;50.906;6.972;2022-08-04T02:56:51;100556.41;;;24.28;57.46
54194;BME280;40102;50.906;6.972;2022-08-04T02:59:22;100557.59;;;24.33;57.44
54194;BME280;40102;50.906;6.972;2022-08-04T03:01:49;100559.81;;;24.21;58.20
54194;BME280;40102;50.906;6.972;2022-08-04T03:22:12;100555.75;;;23.54;60.36
54194;BME280;40102;50.906;6.972;2022-08-04T03:25:05;100557.78;;;23.52;60.43
54194;BME280;40102;50.906;6.972;2022-08-04T03:28:07;100556.06;;;23.51;60.53
54194;BME280;40102;50.906;6.972;2022-08-04T03:33:34;100550.44;;;23.44;60.50
54194;BME280;40102;50.906;6.972;2022-08-04T03:58:47;100545.69;;;23.22;61.25
54194;BME280;40102;50.906;6.972;2022-08-04T04:02:07;100546.38;;;23.24;60.59
54194;BME280;40102;50.906;6.972;2022-08-04T04:07:38;100543.47;;;23.01;61.24
54194;BME280;40102;50.906;6.972;2022-08-04T04:20:56;100545.34;;;23.33;59.47
54194;BME280;40102;50.906;6.972;2022-08-04T04:23:52;100553.72;;;23.32;59.60
54194;BME280;40102;50.906;6.972;2022-08-04T04:34:38;100548.44;;;23.14;59.54
54194;BME280;40102;50.906;6.972;2022-08-04T04:45:24;100557.19;;;23.97;57.66
54194;BME280;40102;50.906;6.972;2022-08-04T04:48:08;100555.88;;;24.24;56.78
54194;BME280;40102;50.906;6.972;2022-08-04T04:54:01;100557.69;;;24.48;55.72
54194;BME280;40102;50.906;6.972;2022-08-04T04:56:49;100559.44;;;24.41;55.85
54194;BME280;40102;50.906;6.972;2022-08-04T04:59:21;100549.06;;;24.28;55.91
54194;BME280;40102;50.906;6.972;2022-08-04T05:16:32;100555.13;;;23.99;55.40
54194;BME280;40102;50.906;6.972;2022-08-04T05:21:49;100559.19;;;24.11;55.28
54194;BME280;40102;50.906;6.972;2022-08-04T05:24:18;100556.28;;;24.13;54.84
54194;BME280;40102;50.906;6.972;2022-08-04T05:26:46;100562.41;;;24.15;54.68
54194;BME280;40102;50.906;6.972;2022-08-04T05:29:21;100560.72;;;24.14;54.50
54194;BME280;40102;50.906;6.972;2022-08-04T05:31:50;100566.84;;;24.16;54.84
54194;BME280;40102;50.906;6.972;2022-08-04T05:34:23;100560.53;;;24.15;54.82
54194;BME280;40102;50.906;6.972;2022-08-04T05:36:53;100566.16;;;24.22;54.83
54194;BME280;40102;50.906;6.972;2022-08-04T05:39:33;100558.44;;;24.26;54.99
54194;BME280;40102;50.906;6.972;2022-08-04T05:42:00;100565.13;;;24.31;54.31
54194;BME280;40102;50.906;6.972;2022-08-04T05:44:27;100564.78;;;24.26;54.15
54194;BME280;40102;50.906;6.972;2022-08-04T05:46:57;100570.41;;;24.25;53.78
54194;BME280;40102;50.906;6.972;2022-08-04T05:49:26;100570.59;;;24.23;54.13
54194;BME280;40102;50.906;6.972;2022-08-04T05:51:53;100565.28;;;24.30;54.18
54194;BME280;40102;50.906;6.972;2022-08-04T05:54:20;100566.97;;;24.39;54.13
54194;BME280;40102;50.906;6.972;2022-08-04T05:56:46;100571.34;;;24.48;54.01
54194;BME280;40102;50.906;6.972;2022-08-04T05:59:14;100573.50;;;24.61;53.65
54194;BME280;40102;50.906;6.972;2022-08-04T06:01:41;100555.28;;;24.76;52.92
54194;BME280;40102;50.906;6.972;2022-08-04T06:04:08;100554.03;;;24.86;52.87
54194;BME280;40102;50.906;6.972;2022-08-04T06:06:34;100555.66;;;24.96;52.87
54194;BME280;40102;50.906;6.972;2022-08-04T06:09:03;100555.34;;;24.99;52.49
54194;BME280;40102;50.906;6.972;2022-08-04T06:11:29;100546.28;;;24.98;51.62
54194;BME280;40102;50.906;6.972;2022-08-04T06:14:14;100551.88;;;25.05;51.56
54194;BME280;40102;50.906;6.972;2022-08-04T06:16:42;100551.78;;;25.13;51.11
54194;BME280;40102;50.906;6.972;2022-08-04T06:19:10;100555.69;;;25.18;50.94
54194;BME280;40102;50.906;6.972;2022-08-04T06:21:44;100555.50;;;25.20;50.73
54194;BME280;40102;50.906;6.972;2022-08-04T06:24:17;100558.78;;;25.15;50.98
54194;BME280;40102;50.906;6.972;2022-08-04T06:26:44;100551.44;;;25.16;51.08
54194;BME280;40102;50.906;6.972;2022-08-04T06:29:13;100556.41;;;25.12;51.11
54194;BME280;40102;50.906;6.972;2022-08-04T06:31:49;100556.06;;;25.15;51.21
54194;BME280;40102;50.906;6.972;2022-08-04T06:34:29;100563.03;;;25.18;51.27
54194;BME280;40102;50.906;6.972;2022-08-04T06:36:57;100562.56;;;25.14;51.58
54194;BME280;40102;50.906;6.972;2022-08-04T06:39:23;100560.69;;;25.15;51.28
54194;BME280;40102;50.906;6.972;2022-08-04T06:41:54;100561.81;;;25.21;51.46
54194;BME280;40102;50.906;6.972;2022-08-04T06:44:20;100569.50;;;25.25;51.23
54194;BME280;40102;50.906;6.972;2022-08-04T06:46:47;100576.09;;;25.31;51.29
54194;BME280;40102;50.906;6.972;2022-08-04T06:49:13;100568.00;;;25.37;50.76
54194;BME280;40102;50.906;6.972;2022-08-04T06:51:39;100569.53;;;25.40;50.95
54194;BME280;40102;50.906;6.972;2022-08-04T06:54:05;100570.09;;;25.35;51.56
54194;BME280;40102;50.906;6.972;2022-08-04T06:56:33;100571.78;;;25.36;51.13
54194;BME280;40102;50.906;6.972;2022-08-04T06:59:02;100565.75;;;25.41;51.24
54194;BME280;40102;50.906;6.972;2022-08-04T07:01:29;100567.47;;;25.42;51.21
54194;BME280;40102;50.906;6.972;2022-08-04T07:03:56;100566.91;;;25.46;50.84
54194;BME280;40102;50.906;6.972;2022-08-04T07:06:22;100568.13;;;25.44;50.97
54194;BME280;40102;50.906;6.972;2022-08-04T07:08:49;100558.69;;;25.46;50.80
54194;BME280;40102;50.906;6.972;2022-08-04T07:11:18;100572.66;;;25.52;50.92
54194;BME280;40102;50.906;6.972;2022-08-04T07:13:47;100565.78;;;25.56;50.68
54194;BME280;40102;50.906;6.972;2022-08-04T07:16:15;100560.59;;;25.61;51.03
54194;BME280;40102;50.906;6.972;2022-08-04T07:18:42;100561.25;;;25.63;51.21
54194;BME280;40102;50.906;6.972;2022-08-04T07:21:07;100569.28;;;25.64;50.66
54194;BME280;40102;50.906;6.972;2022-08-04T07:23:33;100570.00;;;25.66;50.96
54194;BME280;40102;50.906;6.972;2022-08-04T07:26:04;100565.84;;;25.70;50.77
54194;BME280;40102;50.906;6.972;2022-08-04T07:28:33;100567.53;;;25.71;50.87
54194;BME280;40102;50.906;6.972;2022-08-04T07:31:04;100566.69;;;25.71;50.55
54194;BME280;40102;50.906;6.972;2022-08-04T07:33:30;100569.25;;;25.72;51.46
54194;BME280;40102;50.906;6.972;2022-08-04T07:35:56;100582.75;;;25.74;50.95
54194;BME280;40102;50.906;6.972;2022-08-04T07:38:22;100567.63;;;25.78;50.70
54194;BME280;40102;50.906;6.972;2022-08-04T07:40:47;100563.50;;;25.82;50.55
54194;BME280;40102;50.906;6.972;2022-08-04T07:43:16;100566.50;;;25.87;51.10
54194;BME280;40102;50.906;6.972;2022-08-04T07:45:42;100560.00;;;25.88;50.43
54194;BME280;40102;50.906;6.972;2022-08-04T07:48:08;100569.34;;;25.94;50.51
54194;BME280;40102;50.906;6.972;2022-08-04T07:50:35;100566.03;;;25.98;50.53
54194;BME280;40102;50.906;6.972;2022-08-04T07:53:03;100566.09;;;26.05;50.24
54194;BME280;40102;50.906;6.972;2022-08-04T07:55:29;100568.66;;;26.06;49.43
54194;BME280;40102;50.906;6.972;2022-08-04T07:57:54;100556.47;;;26.09;49.93
54194;BME280;40102;50.906;6.972;2022-08-04T08:00:20;100563.06;;;26.14;50.08
54194;BME280;40102;50.906;6.972;2022-08-04T08:02:48;100564.88;;;26.22;50.08
54194;BME280;40102;50.906;6.972;2022-08-04T08:05:17;100566.38;;;26.25;48.90
54194;BME280;40102;50.906;6.972;2022-08-04T08:07:49;100565.25;;;26.34;49.95
54194;BME280;40102;50.906;6.972;2022-08-04T08:10:15;100567.63;;;26.37;49.76
54194;BME280;40102;50.906;6.972;2022-08-04T08:12:42;100562.22;;;26.43;49.35
54194;BME280;40102;50.906;6.972;2022-08-04T08:15:09;100561.63;;;26.48;49.98
54194;BME280;40102;50.906;6.972;2022-08-04T08:17:35;100565.50;;;26.54;50.05
54194;BME280;40102;50.906;6.972;2022-08-04T08:20:01;100558.41;;;26.59;50.01
54194;BME280;40102;50.906;6.972;2022-08-04T08:22:27;100547.03;;;26.62;49.66
54194;BME280;40102;50.906;6.972;2022-08-04T08:24:53;100550.06;;;26.67;49.13
54194;BME280;40102;50.906;6.972;2022-08-04T08:27:19;100556.28;;;26.76;48.53
54194;BME280;40102;50.906;6.972;2022-08-04T08:29:45;100548.38;;;26.88;49.33
54194;BME280;40102;50.906;6.972;2022-08-04T08:32:12;100546.06;;;27.06;48.73
54194;BME280;40102;50.906;6.972;2022-08-04T08:34:38;100556.06;;;27.14;48.57
54194;BME280;40102;50.906;6.972;2022-08-04T08:55:36;100552.94;;;27.45;46.46
54194;BME280;40102;50.906;6.972;2022-08-04T09:00:44;100536.31;;;27.53;45.87
54194;BME280;40102;50.906;6.972;2022-08-04T09:03:26;100534.88;;;27.57;46.48
54194;BME280;40102;50.906;6.972;2022-08-04T09:08:49;100535.00;;;27.70;45.97
54194;BME280;40102;50.906;6.972;2022-08-04T09:11:25;100527.63;;;27.77;46.22
54194;BME280;40102;50.906;6.972;2022-08-04T09:14:09;100522.84;;;27.86;45.51
54194;BME280;40102;50.906;6.972;2022-08-04T09:17:10;100529.00;;;27.94;45.34
54194;BME280;40102;50.906;6.972;2022-08-04T09:19:39;100526.09;;;28.02;44.99
54194;BME280;40102;50.906;6.972;2022-08-04T09:22:19;100521.69;;;28.08;45.33
54194;BME280;40102;50.906;6.972;2022-08-04T09:24:58;100524.03;;;28.11;44.62
54194;BME280;40102;50.906;6.972;2022-08-04T09:28:28;100530.59;;;28.17;43.20
54194;BME280;40102;50.906;6.972;2022-08-04T09:30:44;100530.06;;;28.28;43.27
54194;BME280;40102;50.906;6.972;2022-08-04T09:36:14;100529.91;;;28.49;42.53
54194;BME280;40102;50.906;6.972;2022-08-04T09:42:03;100543.31;;;28.65;41.31
54194;BME280;40102;50.906;6.972;2022-08-04T09:44:42;100540.78;;;28.70;40.75
54194;BME280;40102;50.906;6.972;2022-08-04T09:47:13;100541.00;;;28.76;40.59
54194;BME280;40102;50.906;6.972;2022-08-04T09:52:48;100537.41;;;28.82;41.94
54194;BME280;40102;50.906;6.972;2022-08-04T09:58:13;100539.19;;;29.16;40.46
54194;BME280;40102;50.906;6.972;2022-08-04T10:00:45;100546.41;;;29.37;40.32
54194;BME280;40102;50.906;6.972;2022-08-04T10:03:13;100538.38;;;29.55;39.61
54194;BME280;40102;50.906;6.972;2022-08-04T10:08:28;100540.69;;;29.71;38.95
54194;BME280;40102;50.906;6.972;2022-08-04T10:27:53;100551.06;;;29.29;36.71
54194;BME280;40102;50.906;6.972;2022-08-04T10:30:20;100547.25;;;29.17;36.73
54194;BME280;40102;50.906;6.972;2022-08-04T10:35:25;100548.72;;;29.13;36.22
54194;BME280;40102;50.906;6.972;2022-08-04T10:46:11;100550.84;;;29.38;35.68
54194;BME280;40102;50.906;6.972;2022-08-04T10:49:01;100547.50;;;29.42;35.69
54194;BME280;40102;50.906;6.972;2022-08-04T10:51:52;100554.06;;;29.48;35.68
54194;BME280;40102;50.906;6.972;2022-08-04T10:54:26;100552.78;;;29.50;35.95
54194;BME280;40102;50.906;6.972;2022-08-04T10:57:06;100549.81;;;29.52;35.19
54194;BME280;40102;50.906;6.972;2022-08-04T10:59:44;100560.00;;;29.45;35.79
54194;BME280;40102;50.906;6.972;2022-08-04T11:02:26;100560.38;;;29.42;34.71
54194;BME280;40102;50.906;6.972;2022-08-04T11:07:33;100552.78;;;29.44;33.98
54194;BME280;40102;50.906;6.972;2022-08-04T11:10:01;100551.09;;;29.43;33.35
54194;BME280;40102;50.906;6.972;2022-08-04T11:12:27;100557.44;;;29.43;33.53
54194;BME280;40102;50.906;6.972;2022-08-04T11:15:18;100554.47;;;29.51;34.35
54194;BME280;40102;50.906;6.972;2022-08-04T11:17:58;100550.88;;;29.64;34.54
54194;BME280;40102;50.906;6.972;2022-08-04T11:20:36;100553.81;;;29.76;34.70
54194;BME280;40102;50.906;6.972;2022-08-04T11:23:11;100545.13;;;29.72;34.84
54194;BME280;40102;50.906;6.972;2022-08-04T11:25:57;100551.28;;;29.68;35.19
54194;BME280;40102;50.906;6.972;2022-08-04T11:31:44;100550.84;;;29.77;36.05
54194;BME280;40102;50.906;6.972;2022-08-04T11:34:18;100555.09;;;29.73;36.34
54194;BME280;40102;50.906;6.972;2022-08-04T11:36:51;100558.47;;;29.88;37.42
54194;BME280;40102;50.906;6.972;2022-08-04T11:39:27;100550.84;;;29.84;37.26
54194;BME280;40102;50.906;6.972;2022-08-04T11:42:22;100561.03;;;29.77;38.03
54194;BME280;40102;50.906;6.972;2022-08-04T11:47:27;100573.97;;;29.56;38.11
54194;BME280;40102;50.906;6.972;2022-08-04T11:50:07;100569.09;;;29.52;38.83
54194;BME280;40102;50.906;6.972;2022-08-04T11:52:37;100561.69;;;29.52;38.94
54194;BME280;40102;50.906;6.972;2022-08-04T11:55:09;100579.50;;;29.56;39.24
54194;BME280;40102;50.906;6.972;2022-08-04T11:57:36;100566.97;;;29.54;39.67
54194;BME280;40102;50.906;6.972;2022-08-04T12:00:05;100576.31;;;29.46;39.53
54194;BME280;40102;50.906;6.972;2022-08-04T12:06:03;100561.22;;;29.29;39.13
54194;BME280;40102;50.906;6.972;2022-08-04T12:16:41;100571.84;;;29.65;39.28
54194;BME280;40102;50.906;6.972;2022-08-04T12:19:16;100579.28;;;29.58;39.51
54194;BME280;40102;50.906;6.972;2022-08-04T12:21:52;100592.22;;;29.57;39.40
54194;BME280;40102;50.906;6.972;2022-08-04T12:24:36;100593.91;;;29.65;39.55
54194;BME280;40102;50.906;6.972;2022-08-04T12:27:16;100593.69;;;29.53;39.36
54194;BME280;40102;50.906;6.972;2022-08-04T12:29:45;100604.72;;;29.47;39.24
54194;BME280;40102;50.906;6.972;2022-08-04T12:32:22;100601.28;;;29.38;39.30
54194;BME280;40102;50.906;6.972;2022-08-04T12:35:19;100601.69;;;29.35;39.25
54194;BME280;40102;50.906;6.972;2022-08-04T12:38:00;100597.69;;;29.38;39.48
54194;BME280;40102;50.906;6.972;2022-08-04T12:40:41;100591.75;;;29.41;39.66
54194;BME280;40102;50.906;6.972;2022-08-04T12:43:14;100582.22;;;29.37;39.91
54194;BME280;40102;50.906;6.972;2022-08-04T12:45:52;100578.81;;;29.41;40.21
54194;BME280;40102;50.906;6.972;2022-08-04T12:48:21;100572.28;;;29.42;40.25
54194;BME280;40102;50.906;6.972;2022-08-04T12:50:53;100559.97;;;29.31;40.23
54194;BME280;40102;50.906;6.972;2022-08-04T12:53:27;100567.16;;;29.26;40.14
54194;BME280;40102;50.906;6.972;2022-08-04T12:55:56;100566.31;;;29.25;40.67
54194;BME280;40102;50.906;6.972;2022-08-04T12:58:23;100572.25;;;29.22;40.81
54194;BME280;40102;50.906;6.972;2022-08-04T13:00:53;100571.63;;;29.27;40.56
54194;BME280;40102;50.906;6.972;2022-08-04T13:03:21;100575.84;;;29.36;40.42
54194;BME280;40102;50.906;6.972;2022-08-04T13:05:52;100573.56;;;29.46;40.36
54194;BME280;40102;50.906;6.972;2022-08-04T13:08:19;100577.59;;;29.57;40.21
54194;BME280;40102;50.906;6.972;2022-08-04T13:10:46;100586.06;;;29.69;40.17
54194;BME280;40102;50.906;6.972;2022-08-04T13:13:23;100586.06;;;29.75;39.79
54194;BME280;40102;50.906;6.972;2022-08-04T13:16:09;100569.06;;;29.85;39.67
54194;BME280;40102;50.906;6.972;2022-08-04T13:18:37;100574.56;;;29.98;39.80
54194;BME280;40102;50.906;6.972;2022-08-04T13:21:18;100581.97;;;30.11;39.33
54194;BME280;40102;50.906;6.972;2022-08-04T13:23:49;100584.31;;;30.07;39.33
54194;BME280;40102;50.906;6.972;2022-08-04T13:26:17;100578.34;;;30.17;39.36
54194;BME280;40102;50.906;6.972;2022-08-04T13:28:46;100585.28;;;30.39;38.44
54194;BME280;40102;50.906;6.972;2022-08-04T13:31:17;100571.84;;;30.56;38.09
54194;BME280;40102;50.906;6.972;2022-08-04T13:33:46;100573.53;;;30.64;37.91
54194;BME280;40102;50.906;6.972;2022-08-04T13:36:13;100573.72;;;30.69;37.85
54194;BME280;40102;50.906;6.972;2022-08-04T13:38:50;100569.75;;;30.51;38.27
54194;BME280;40102;50.906;6.972;2022-08-04T13:41:17;100578.25;;;30.50;38.17
54194;BME280;40102;50.906;6.972;2022-08-04T13:43:48;100572.25;;;30.66;37.34
54194;BME280;40102;50.906;6.972;2022-08-04T13:46:44;100582.88;;;30.63;37.26
54194;BME280;40102;50.906;6.972;2022-08-04T13:49:14;100581.47;;;30.40;37.80
54194;BME280;40102;50.906;6.972;2022-08-04T13:51:41;100581.06;;;30.30;37.68
54194;BME280;40102;50.906;6.972;2022-08-04T13:54:11;100568.97;;;30.31;37.36
54194;BME280;40102;50.906;6.972;2022-08-04T13:56:38;100574.94;;;30.28;37.82
54194;BME280;40102;50.906;6.972;2022-08-04T13:59:08;100566.47;;;30.23;37.78
54194;BME280;40102;50.906;6.972;2022-08-04T14:01:35;100572.00;;;30.16;38.09
54194;BME280;40102;50.906;6.972;2022-08-04T14:04:11;100568.63;;;30.08;38.68
54194;BME280;40102;50.906;6.972;2022-08-04T14:06:48;100564.59;;;30.10;39.06
54194;BME280;40102;50.906;6.972;2022-08-04T14:09:22;100565.19;;;30.25;38.84
54194;BME280;40102;50.906;6.972;2022-08-04T14:11:50;100567.47;;;30.35;38.92
54194;BME280;40102;50.906;6.972;2022-08-04T14:14:19;100576.34;;;30.44;38.21
54194;BME280;40102;50.906;6.972;2022-08-04T14:19:23;100567.16;;;30.56;37.99
54194;BME280;40102;50.906;6.972;2022-08-04T14:21:49;100570.19;;;30.48;38.27
54194;BME280;40102;50.906;6.972;2022-08-04T14:24:26;100566.78;;;30.46;38.33
54194;BME280;40102;50.906;6.972;2022-08-04T14:26:52;100569.50;;;30.66;38.70
54194;BME280;40102;50.906;6.972;2022-08-04T14:29:22;100551.78;;;30.80;38.31
54194;BME280;40102;50.906;6.972;2022-08-04T14:31:48;100565.09;;;30.90;38.32
54194;BME280;40102;50.906;6.972;2022-08-04T14:34:25;100559.44;;;31.16;37.84
54194;BME280;40102;50.906;6.972;2022-08-04T14:36:52;100562.81;;;31.43;37.56
54194;BME280;40102;50.906;6.972;2022-08-04T14:39:35;100560.31;;;31.60;37.26
54194;BME280;40102;50.906;6.972;2022-08-04T14:42:02;100555.19;;;31.88;37.23
54194;BME280;40102;50.906;6.972;2022-08-04T14:44:27;100558.25;;;31.99;36.59
54194;BME280;40102;50.906;6.972;2022-08-04T14:46:55;100553.94;;;31.84;36.83
54194;BME280;40102;50.906;6.972;2022-08-04T14:49:23;100555.41;;;32.05;36.80
54194;BME280;40102;50.906;6.972;2022-08-04T14:51:57;100562.81;;;32.11;36.84
54194;BME280;40102;50.906;6.972;2022-08-04T14:54:31;100559.66;;;32.08;36.60
54194;BME280;40102;50.906;6.972;2022-08-04T14:57:01;100553.72;;;31.86;36.92
54194;BME280;40102;50.906;6.972;2022-08-04T14:59:39;100568.31;;;31.68;37.28
54194;BME280;40102;50.906;6.972;2022-08-04T15:02:05;100556.66;;;31.66;37.30
54194;BME280;40102;50.906;6.972;2022-08-04T15:04:31;100562.22;;;31.60;37.53
54194;BME280;40102;50.906;6.972;2022-08-04T15:06:56;100564.88;;;31.48;37.66
54194;BME280;40102;50.906;6.972;2022-08-04T15:09:22;100567.47;;;31.43;37.64
54194;BME280;40102;50.906;6.972;2022-08-04T15:11:48;100565.50;;;31.50;37.69
54194;BME280;40102;50.906;6.972;2022-08-04T15:14:16;100566.91;;;31.59;37.36
54194;BME280;40102;50.906;6.972;2022-08-04T15:16:42;100566.47;;;31.62;37.26
54194;BME280;40102;50.906;6.972;2022-08-04T15:19:07;100567.44;;;31.49;37.51
54194;BME280;40102;50.906;6.972;2022-08-04T15:21:35;100562.47;;;31.33;37.69
54194;BME280;40102;50.906;6.972;2022-08-04T15:24:04;100560.28;;;31.17;37.95
54194;BME280;40102;50.906;6.972;2022-08-04T15:26:41;100562.72;;;31.00;38.20
54194;BME280;40102;50.906;6.972;2022-08-04T15:29:12;100561.84;;;31.00;38.16
54194;BME280;40102;50.906;6.972;2022-08-04T15:31:40;100566.81;;;30.91;38.23
54194;BME280;40102;50.906;6.972;2022-08-04T15:34:07;100553.47;;;30.81;38.20
54194;BME280;40102;50.906;6.972;2022-08-04T15:36:50;100565.63;;;30.74;38.04
54194;BME280;40102;50.906;6.972;2022-08-04T15:39:26;100554.84;;;30.66;38.33
54194;BME280;40102;50.906;6.972;2022-08-04T15:41:55;100559.56;;;30.52;38.50
54194;BME280;40102;50.906;6.972;2022-08-04T15:49:23;100555.34;;;30.43;38.24
54194;BME280;40102;50.906;6.972;2022-08-04T15:52:03;100557.91;;;30.38;38.62
54194;BME280;40102;50.906;6.972;2022-08-04T15:54:32;100564.06;;;30.40;38.79
54194;BME280;40102;50.906;6.972;2022-08-04T15:57:00;100563.66;;;30.36;38.89
54194;BME280;40102;50.906;6.972;2022-08-04T15:59:58;100567.06;;;30.32;39.27
54194;BME280;40102;50.906;6.972;2022-08-04T16:08:07;100570.56;;;30.01;39.99
54194;BME280;40102;50.906;6.972;2022-08-04T16:10:34;100577.13;;;29.93;40.11
54194;BME280;40102;50.906;6.972;2022-08-04T16:13:08;100588.78;;;29.82;41.01
54194;BME280;40102;50.906;6.972;2022-08-04T16:15:38;100592.00;;;29.72;41.53
54194;BME280;40102;50.906;6.972;2022-08-04T16:18:04;100579.28;;;29.58;41.67
54194;BME280;40102;50.906;6.972;2022-08-04T16:20:32;100578.00;;;29.54;42.05
54194;BME280;40102;50.906;6.972;2022-08-04T16:23:07;100580.34;;;29.50;42.01
54194;BME280;40102;50.906;6.972;2022-08-04T16:25:44;100600.06;;;29.47;42.58
54194;BME280;40102;50.906;6.972;2022-08-04T16:28:44;100602.34;;;29.37;42.91
54194;BME280;40102;50.906;6.972;2022-08-04T16:31:11;100607.44;;;29.33;43.67
54194;BME280;40102;50.906;6.972;2022-08-04T16:33:38;100625.00;;;29.32;43.94
54194;BME280;40102;50.906;6.972;2022-08-04T16:36:06;100622.47;;;29.31;43.85
54194;BME280;40102;50.906;6.972;2022-08-04T16:38:59;100627.34;;;29.36;44.01
54194;BME280;40102;50.906;6.972;2022-08-04T16:41:41;100629.69;;;29.39;43.95
54194;BME280;40102;50.906;6.972;2022-08-04T16:44:29;100626.50;;;29.35;44.13
54194;BME280;40102;50.906;6.972;2022-08-04T16:46:58;100630.94;;;29.29;44.47
54194;BME280;40102;50.906;6.972;2022-08-04T16:49:27;100633.06;;;29.27;44.43
54194;BME280;40102;50.906;6.972;2022-08-04T16:51:54;100634.75;;;29.28;44.53
54194;BME280;40102;50.906;6.972;2022-08-04T16:54:28;100623.53;;;29.30;44.67
54194;BME280;40102;50.906;6.972;2022-08-04T16:56:55;100625.00;;;29.32;45.18
54194;BME280;40102;50.906;6.972;2022-08-04T16:59:20;100621.19;;;29.33;45.49
54194;BME280;40102;50.906;6.972;2022-08-04T17:01:49;100622.25;;;29.32;45.13
54194;BME280;40102;50.906;6.972;2022-08-04T17:04:15;100605.94;;;29.31;45.08
54194;BME280;40102;50.906;6.972;2022-08-04T17:06:44;100609.53;;;29.31;44.90
54194;BME280;40102;50.906;6.972;2022-08-04T17:09:16;100604.03;;;29.31;45.16
54194;BME280;40102;50.906;6.972;2022-08-04T17:11:43;100593.22;;;29.30;44.92
54194;BME280;40102;50.906;6.972;2022-08-04T17:14:09;100572.88;;;29.31;45.37
54194;BME280;40102;50.906;6.972;2022-08-04T17:16:38;100561.44;;;29.34;45.66
54194;BME280;40102;50.906;6.972;2022-08-04T17:19:05;100553.59;;;29.38;45.52
54194;BME280;40102;50.906;6.972;2022-08-04T17:21:34;100544.53;;;29.44;45.68
54194;BME280;40102;50.906;6.972;2022-08-04T17:24:01;100545.38;;;29.51;45.92